Time;durP1;ratioP1;P1;durP2;ratioP2;P2;SDS_P1;SDS_P2;PMS_P1;PMS_P2;Temp;Humidity;BMP_temperature;BMP_pressure;BME280_temperature;BME280_humidity;BME280_pressure;Samples;Min_cycle;Max_cycle;Signal;HPM_P1;HPM_P2
2023/04/06 00:00:53;;;;;;;28.40;12.90;;;;;;;0.89;63.54;99643.44;108150;1305;22397;-37
2023/04/06 00:03:18;;;;;;;29.10;12.80;;;;;;;0.84;63.81;99641.77;108108;1305;24190;-39
2023/04/06 00:05:44;;;;;;;25.60;12.60;;;;;;;0.83;63.59;99646.09;108150;1305;22991;-42
2023/04/06 00:08:10;;;;;;;27.60;12.60;;;;;;;0.82;63.79;99643.34;108133;1305;22966;-39
2023/04/06 00:10:35;;;;;;;27.90;12.80;;;;;;;0.84;64.40;99640.21;108143;1305;22235;-43
2023/04/06 00:13:01;;;;;;;31.10;13.60;;;;;;;0.85;63.83;99638.30;108133;1305;23022;-40
2023/04/06 00:15:27;;;;;;;24.50;12.20;;;;;;;0.85;62.74;99637.61;108162;1305;22204;-41
2023/04/06 00:17:53;;;;;;;26.40;12.70;;;;;;;0.81;64.10;99639.38;108135;1305;22241;-37
2023/04/06 00:20:18;;;;;;;32.10;12.80;;;;;;;0.79;64.76;99633.70;108121;1305;22393;-40
2023/04/06 00:22:44;;;;;;;28.80;12.80;;;;;;;0.81;64.65;99634.54;108148;1305;22291;-42
2023/04/06 00:25:10;;;;;;;28.70;13.40;;;;;;;0.81;65.08;99633.86;108141;1305;22953;-41
2023/04/06 00:27:36;;;;;;;28.60;12.60;;;;;;;0.80;65.61;99631.11;108143;1305;23073;-38
2023/04/06 00:30:06;;;;;;;27.10;12.70;;;;;;;0.79;66.18;99630.59;108168;1305;22913;-44
2023/04/06 00:32:31;;;;;;;30.60;13.80;;;;;;;0.77;66.26;99631.46;108130;1305;22999;-39
2023/04/06 00:34:58;;;;;;;30.30;13.10;;;;;;;0.76;66.33;99628.03;108144;1305;22390;-36
2023/04/06 00:37:24;;;;;;;29.50;12.50;;;;;;;0.73;66.95;99627.89;108163;1305;22277;-41
2023/04/06 00:39:51;;;;;;;31.90;12.70;;;;;;;0.73;66.69;99624.43;108144;1305;23133;-47
2023/04/06 00:42:18;;;;;;;24.70;12.60;;;;;;;0.72;66.74;99624.96;108172;1305;22222;-40
2023/04/06 00:44:43;;;;;;;27.20;12.60;;;;;;;0.72;67.65;99622.73;108136;1305;22818;-42
2023/04/06 00:47:09;;;;;;;33.00;13.50;;;;;;;0.69;66.91;99623.95;108123;1305;22311;-41
2023/04/06 00:49:34;;;;;;;32.80;13.70;;;;;;;0.69;67.04;99624.13;108140;1305;22428;-41
2023/04/06 00:52:01;;;;;;;25.40;13.50;;;;;;;0.70;67.18;99624.12;108134;1305;22399;-42
2023/04/06 00:54:27;;;;;;;28.70;13.30;;;;;;;0.70;66.77;99624.45;108133;1305;22399;-37
2023/04/06 00:56:52;;;;;;;30.60;12.80;;;;;;;0.70;66.63;99624.12;108141;1305;22242;-41
2023/04/06 00:59:18;;;;;;;26.30;13.10;;;;;;;0.71;66.41;99630.50;108131;1305;22265;-41
2023/04/06 01:01:43;;;;;;;29.20;13.30;;;;;;;0.68;66.30;99627.24;108113;1305;22201;-40
2023/04/06 01:04:08;;;;;;;30.50;14.20;;;;;;;0.65;65.87;99626.23;108129;1305;22227;-42
2023/04/06 01:06:34;;;;;;;34.40;14.80;;;;;;;0.65;65.85;99625.90;108129;1305;22211;-39
2023/04/06 01:08:59;;;;;;;32.10;13.70;;;;;;;0.66;65.49;99623.64;108143;1305;23043;-37
2023/04/06 01:11:25;;;;;;;31.50;15.70;;;;;;;0.64;65.72;99624.00;108125;1305;22279;-42
2023/04/06 01:13:51;;;;;;;35.40;15.90;;;;;;;0.63;65.93;99622.63;108147;1305;23084;-37
2023/04/06 01:16:16;;;;;;;29.90;14.90;;;;;;;0.61;66.01;99621.10;108118;1305;22234;-39
2023/04/06 01:18:42;;;;;;;29.80;14.60;;;;;;;0.60;65.90;99620.24;108111;1305;22976;-39
2023/04/06 01:21:08;;;;;;;28.90;14.10;;;;;;;0.61;65.91;99619.21;108132;1305;22261;-44
2023/04/06 01:23:34;;;;;;;33.80;14.90;;;;;;;0.59;65.93;99620.25;108142;1305;22190;-38
2023/04/06 01:26:00;;;;;;;28.60;13.60;;;;;;;0.59;65.98;99618.53;108128;1305;22249;-38
2023/04/06 01:28:25;;;;;;;26.30;12.90;;;;;;;0.58;65.95;99615.45;108119;1305;22299;-43
2023/04/06 01:30:51;;;;;;;27.50;14.00;;;;;;;0.58;66.04;99613.89;108137;1305;22464;-41
2023/04/06 01:33:16;;;;;;;31.20;14.40;;;;;;;0.60;65.75;99608.17;108121;1305;23220;-40
2023/04/06 01:35:41;;;;;;;27.30;13.70;;;;;;;0.58;66.05;99608.02;108107;1305;22447;-41
2023/04/06 01:38:06;;;;;;;26.80;13.50;;;;;;;0.57;66.02;99606.31;108133;1305;22273;-39
2023/04/06 01:40:32;;;;;;;27.40;14.00;;;;;;;0.53;65.78;99603.91;108121;1305;22299;-39
2023/04/06 01:42:57;;;;;;;33.60;14.40;;;;;;;0.52;66.22;99604.97;108108;1305;22232;-42
2023/04/06 01:45:22;;;;;;;30.80;13.70;;;;;;;0.51;66.29;99602.73;108134;1305;22903;-41
2023/04/06 01:47:48;;;;;;;30.90;15.10;;;;;;;0.47;66.98;99597.42;108116;1305;22235;-38
2023/04/06 01:50:13;;;;;;;26.60;13.70;;;;;;;0.45;66.42;99597.61;108103;1305;22945;-43
2023/04/06 01:52:38;;;;;;;33.40;14.80;;;;;;;0.43;66.67;99597.30;108116;1305;22234;-41
2023/04/06 01:55:04;;;;;;;25.90;14.20;;;;;;;0.45;66.90;99594.85;108137;1305;23245;-40
2023/04/06 01:57:29;;;;;;;34.00;15.00;;;;;;;0.45;67.30;99594.00;108107;1305;22224;-39
2023/04/06 01:59:54;;;;;;;38.40;15.90;;;;;;;0.42;66.81;99595.40;108109;1305;22275;-41
2023/04/06 02:02:20;;;;;;;31.60;14.70;;;;;;;0.37;67.02;99593.89;108102;1305;22247;-38
2023/04/06 02:04:45;;;;;;;30.20;14.70;;;;;;;0.36;67.06;99592.16;108122;1305;22437;-41
2023/04/06 02:07:10;;;;;;;29.40;13.30;;;;;;;0.35;67.02;99593.05;108103;1305;22199;-36
2023/04/06 02:09:36;;;;;;;34.00;15.60;;;;;;;0.35;67.62;99591.66;108124;1305;23175;-46
2023/04/06 02:12:01;;;;;;;26.30;13.60;;;;;;;0.34;67.67;99588.05;108121;1305;22565;-43
2023/04/06 02:14:27;;;;;;;26.50;14.40;;;;;;;0.34;67.55;99587.54;108128;1305;23084;-36
2023/04/06 02:16:52;;;;;;;26.40;13.80;;;;;;;0.32;67.56;99585.83;108118;1305;22222;-38
2023/04/06 02:19:18;;;;;;;36.00;14.90;;;;;;;0.32;67.85;99584.11;107885;1305;22916;-36
2023/04/06 02:21:43;;;;;;;33.60;14.50;;;;;;;0.30;67.62;99586.89;108112;1305;22540;-38
2023/04/06 02:24:08;;;;;;;28.20;13.80;;;;;;;0.31;67.70;99584.29;108128;1283;22987;-42
2023/04/06 02:26:34;;;;;;;26.90;14.90;;;;;;;0.32;67.60;99584.45;108131;1305;23009;-41
2023/04/06 02:28:59;;;;;;;27.50;14.30;;;;;;;0.32;67.36;99585.31;108119;1305;22248;-41
2023/04/06 02:31:24;;;;;;;27.80;14.90;;;;;;;0.32;67.33;99585.66;108106;1305;22217;-38
2023/04/06 02:33:51;;;;;;;30.50;15.40;;;;;;;0.31;67.46;99582.23;108125;1305;22460;-38
2023/04/06 02:36:16;;;;;;;28.70;14.40;;;;;;;0.30;67.82;99587.75;108114;1305;22407;-38
2023/04/06 02:38:41;;;;;;;28.80;14.20;;;;;;;0.28;67.72;99583.80;108131;1305;22999;-41
2023/04/06 02:43:40;;;;;;;36.80;16.60;;;;;;;0.29;67.86;99581.73;106994;1308;545324;-42
2023/04/06 02:46:06;;;;;;;34.30;14.80;;;;;;;0.24;68.64;99583.48;107414;1312;22270;-40
2023/04/06 02:48:31;;;;;;;32.80;14.90;;;;;;;0.25;68.05;99583.30;107394;1313;22234;-39
2023/04/06 02:50:56;;;;;;;31.90;14.70;;;;;;;0.27;67.75;99581.22;107375;1313;22501;-41
2023/04/06 02:53:22;;;;;;;31.40;14.60;;;;;;;0.28;67.22;99580.52;107669;1310;22237;-44
2023/04/06 02:55:47;;;;;;;28.90;13.90;;;;;;;0.29;67.97;99580.34;107691;1310;22246;-40
2023/04/06 02:58:12;;;;;;;35.20;14.80;;;;;;;0.28;68.51;99587.41;107738;1308;150955;-41
2023/04/06 03:00:38;;;;;;;36.20;14.80;;;;;;;0.26;68.27;99591.23;107898;1308;22898;-43
2023/04/06 03:03:04;;;;;;;30.10;14.10;;;;;;;0.24;68.29;99592.45;107860;1308;22198;-40
2023/04/06 03:05:30;;;;;;;45.30;19.80;;;;;;;0.24;68.25;99592.80;107870;1308;23120;-44
2023/04/06 03:07:55;;;;;;;53.60;23.70;;;;;;;0.27;68.10;99593.29;107878;1308;22245;-43
2023/04/06 03:10:21;;;;;;;49.10;21.60;;;;;;;0.27;67.83;99594.66;107861;1308;22251;-40
2023/04/06 03:12:46;;;;;;;33.70;17.00;;;;;;;0.28;67.01;99599.84;107870;1308;22238;-38
2023/04/06 03:15:12;;;;;;;31.70;15.60;;;;;;;0.28;66.88;99597.93;107884;1308;22425;-40
2023/04/06 03:17:38;;;;;;;30.70;14.70;;;;;;;0.29;66.83;99599.65;107866;1307;22468;-42
2023/04/06 03:20:04;;;;;;;31.60;14.60;;;;;;;0.29;67.13;99602.93;107878;1308;22262;-44
2023/04/06 03:22:30;;;;;;;34.10;13.80;;;;;;;0.32;66.69;99599.11;107846;1308;22273;-38
2023/04/06 03:24:55;;;;;;;31.10;14.90;;;;;;;0.36;67.16;99594.41;107839;1299;23124;-41
2023/04/06 03:27:20;;;;;;;38.30;17.30;;;;;;;0.35;67.63;99593.38;107887;1308;22399;-40
2023/04/06 03:29:46;;;;;;;38.30;17.50;;;;;;;0.35;67.94;99599.77;107858;1308;22239;-39
2023/04/06 03:32:11;;;;;;;42.00;18.00;;;;;;;0.35;67.25;99600.64;107865;1308;24211;-42
2023/04/06 03:34:36;;;;;;;30.50;16.50;;;;;;;0.38;68.28;99598.72;107879;1308;22218;-43
2023/04/06 03:37:02;;;;;;;34.50;16.80;;;;;;;0.44;67.87;99600.20;107880;1308;22922;-44
2023/04/06 03:39:27;;;;;;;34.80;15.00;;;;;;;0.51;67.31;99603.95;107866;1307;22223;-39
2023/04/06 03:41:52;;;;;;;33.90;15.20;;;;;;;0.56;66.30;99608.39;107883;1308;22384;-42
2023/04/06 03:44:18;;;;;;;34.60;14.20;;;;;;;0.59;66.10;99607.66;107843;1307;22285;-40
2023/04/06 03:46:43;;;;;;;36.30;14.50;;;;;;;0.61;65.60;99604.71;107867;1307;22391;-42
2023/04/06 03:49:08;;;;;;;36.70;13.40;;;;;;;0.65;65.62;99605.88;107880;1308;22224;-44
2023/04/06 03:51:33;;;;;;;32.00;15.40;;;;;;;0.67;65.45;99604.48;107873;1308;22398;-43
2023/04/06 03:53:59;;;;;;;31.20;15.20;;;;;;;0.67;65.41;99604.48;107907;1308;22997;-41
2023/04/06 03:56:24;;;;;;;32.70;16.00;;;;;;;0.69;64.98;99604.98;107856;1308;24394;-41
2023/04/06 03:58:50;;;;;;;40.70;18.00;;;;;;;0.73;65.64;99604.42;107821;1308;22418;-42
2023/04/06 04:01:17;;;;;;;41.90;18.00;;;;;;;0.78;65.94;99610.76;107843;1308;22522;-40
2023/04/06 04:03:43;;;;;;;40.90;15.00;;;;;;;0.80;65.38;99611.25;107843;1308;22586;-41
2023/04/06 04:06:08;;;;;;;27.00;14.20;;;;;;;0.84;64.98;99609.31;107850;1308;22237;-42
2023/04/06 04:08:35;;;;;;;29.50;15.40;;;;;;;0.83;64.73;99610.17;107838;1308;22218;-44
2023/04/06 04:11:00;;;;;;;35.20;15.00;;;;;;;0.86;64.61;99609.81;107857;1308;22487;-43
2023/04/06 04:13:25;;;;;;;28.90;13.50;;;;;;;0.90;64.39;99612.34;107857;1308;22234;-43
2023/04/06 04:15:51;;;;;;;29.40;13.40;;;;;;;0.92;64.40;99608.52;107848;1308;22972;-42
2023/04/06 04:18:16;;;;;;;28.00;11.80;;;;;;;0.96;64.24;99607.28;107846;1308;22468;-41
2023/04/06 04:20:41;;;;;;;27.70;12.00;;;;;;;1.02;63.51;99603.42;107827;1308;22231;-44
2023/04/06 04:23:07;;;;;;;25.30;11.70;;;;;;;1.01;62.99;99607.91;107878;1308;22384;-42
2023/04/06 04:25:32;;;;;;;25.60;11.60;;;;;;;1.06;62.70;99603.20;107849;1308;22200;-43
2023/04/06 04:27:57;;;;;;;25.60;12.40;;;;;;;1.08;62.97;99607.65;107845;1308;22257;-40
2023/04/06 04:30:23;;;;;;;19.70;11.20;;;;;;;1.10;62.13;99606.77;107834;1308;22469;-44
2023/04/06 04:32:48;;;;;;;25.30;11.60;;;;;;;0.94;61.03;99606.61;107835;1308;22221;-44
2023/04/06 04:35:13;;;;;;;30.40;11.20;;;;;;;0.95;61.54;99604.88;107843;1308;23123;-43
2023/04/06 04:37:41;;;;;;;23.10;10.80;;;;;;;0.98;61.63;99602.77;107850;1308;22244;-44
2023/04/06 04:40:07;;;;;;;22.40;10.30;;;;;;;1.05;61.62;99601.65;107852;1308;22228;-41
2023/04/06 04:42:32;;;;;;;21.90;10.50;;;;;;;1.11;61.34;99602.27;107851;1308;22261;-42
2023/04/06 04:44:57;;;;;;;19.30;9.00;;;;;;;1.16;60.90;99608.09;107862;1308;22327;-44
2023/04/06 04:47:23;;;;;;;19.80;9.70;;;;;;;1.16;60.17;99604.63;107849;1308;22228;-41
2023/04/06 04:49:48;;;;;;;15.50;8.50;;;;;;;1.19;60.55;99602.35;107855;1308;22414;-44
2023/04/06 04:52:13;;;;;;;23.70;9.10;;;;;;;1.23;60.27;99600.23;107865;1308;22402;-43
2023/04/06 04:54:40;;;;;;;19.10;8.90;;;;;;;1.21;60.28;99604.22;107856;1308;22412;-41
2023/04/06 04:57:06;;;;;;;17.60;8.70;;;;;;;1.19;59.90;99605.81;107837;1308;22420;-42
2023/04/06 04:59:31;;;;;;;17.40;7.90;;;;;;;1.21;59.81;99603.36;107841;1308;22853;-43
2023/04/06 05:01:57;;;;;;;19.60;8.60;;;;;;;1.28;59.73;99603.63;107841;1308;22350;-42
2023/04/06 05:04:23;;;;;;;19.10;8.30;;;;;;;1.28;59.42;99604.83;107851;1308;23011;-42
2023/04/06 05:06:48;;;;;;;16.60;8.90;;;;;;;1.28;59.18;99605.00;107868;1308;23014;-42
2023/04/06 05:09:14;;;;;;;22.10;8.10;;;;;;;1.31;59.63;99607.90;107855;1308;22407;-41
2023/04/06 05:11:39;;;;;;;19.30;9.20;;;;;;;1.35;58.95;99606.13;107844;1308;22214;-42
2023/04/06 05:14:06;;;;;;;22.60;9.40;;;;;;;1.43;59.25;99607.75;107863;1308;22295;-42
2023/04/06 05:16:31;;;;;;;19.20;9.30;;;;;;;1.36;59.36;99603.70;107853;1308;22529;-40
2023/04/06 05:18:56;;;;;;;21.00;9.20;;;;;;;1.33;59.28;99603.73;107865;1308;22294;-43
2023/04/06 05:21:22;;;;;;;23.50;10.70;;;;;;;1.33;59.45;99604.41;107870;1308;23069;-42
2023/04/06 05:23:47;;;;;;;23.50;9.90;;;;;;;1.38;59.31;99609.55;107864;1308;22286;-41
2023/04/06 05:26:12;;;;;;;23.00;10.60;;;;;;;1.36;59.16;99604.90;107861;1308;22231;-39
2023/04/06 05:28:38;;;;;;;26.50;11.60;;;;;;;1.27;59.37;99606.39;107829;1308;22444;-42
2023/04/06 05:31:03;;;;;;;30.20;12.20;;;;;;;1.20;59.62;99605.45;107846;1308;22247;-41
2023/04/06 05:33:29;;;;;;;32.70;14.00;;;;;;;1.20;59.81;99605.80;107846;1308;22482;-41
2023/04/06 05:35:54;;;;;;;35.30;14.30;;;;;;;1.25;59.52;99600.20;107836;1308;22223;-42
2023/04/06 05:38:20;;;;;;;36.10;14.60;;;;;;;1.31;59.43;99602.03;107848;1308;22224;-41
2023/04/06 05:40:45;;;;;;;27.80;13.60;;;;;;;1.32;59.49;99605.14;107825;1308;22720;-39
2023/04/06 05:43:10;;;;;;;31.10;13.10;;;;;;;1.16;59.02;99604.46;107829;1308;22446;-45
2023/04/06 05:45:36;;;;;;;36.40;16.50;;;;;;;1.07;59.58;99598.52;107862;1308;22531;-42
2023/04/06 05:48:02;;;;;;;34.10;15.50;;;;;;;1.22;59.76;99599.73;107831;1308;22236;-43
2023/04/06 05:50:28;;;;;;;37.50;14.90;;;;;;;1.28;59.40;99594.13;107855;1308;23005;-43
2023/04/06 05:52:53;;;;;;;32.90;13.90;;;;;;;1.34;58.87;99589.89;107835;1308;22221;-40
2023/04/06 05:55:18;;;;;;;32.20;13.50;;;;;;;1.37;58.76;99592.27;107843;1308;22448;-45
2023/04/06 05:57:44;;;;;;;31.70;13.90;;;;;;;1.31;58.59;99592.88;107840;1308;22860;-40
2023/04/06 06:00:10;;;;;;;37.00;14.20;;;;;;;1.28;58.53;99593.77;107831;1308;23241;-43
2023/04/06 06:02:35;;;;;;;36.90;15.30;;;;;;;1.28;58.63;99590.33;107846;1308;23135;-40
2023/04/06 06:05:02;;;;;;;39.90;15.90;;;;;;;1.25;58.94;99591.39;107853;1308;22212;-43
2023/04/06 06:07:27;;;;;;;36.50;16.20;;;;;;;1.31;58.97;99590.64;107854;1308;22984;-43
2023/04/06 06:09:55;;;;;;;37.20;14.20;;;;;;;1.39;58.84;99590.88;107835;1308;22867;-43
2023/04/06 06:12:21;;;;;;;30.90;14.80;;;;;;;1.40;58.97;99590.17;107839;1308;22225;-46
2023/04/06 06:14:46;;;;;;;38.20;16.30;;;;;;;1.41;58.94;99589.83;107844;1308;22249;-42
2023/04/06 06:17:12;;;;;;;35.80;14.20;;;;;;;1.52;59.36;99589.33;107863;1308;22183;-44
2023/04/06 06:19:37;;;;;;;31.80;12.90;;;;;;;1.61;58.78;99589.02;107824;1308;22219;-43
2023/04/06 06:22:04;;;;;;;34.30;14.60;;;;;;;1.66;58.32;99587.92;107855;1308;23201;-45
2023/04/06 06:24:31;;;;;;;28.50;13.50;;;;;;;1.56;58.24;99583.92;107458;1308;22401;-41
2023/04/06 06:26:56;;;;;;;28.80;13.50;;;;;;;1.56;58.22;99585.81;107836;1308;22411;-42
2023/04/06 06:29:21;;;;;;;39.00;14.80;;;;;;;1.62;58.31;99586.59;107834;1308;22969;-41
2023/04/06 06:31:46;;;;;;;30.10;13.20;;;;;;;1.70;58.40;99585.25;107829;1308;23027;-40
2023/04/06 06:34:12;;;;;;;27.40;13.50;;;;;;;1.85;58.20;99580.73;107835;1308;24234;-44
2023/04/06 06:36:38;;;;;;;31.70;13.40;;;;;;;1.94;57.62;99583.17;107848;1308;22342;-42
2023/04/06 06:39:03;;;;;;;41.30;17.80;;;;;;;1.90;57.42;99579.59;107844;1308;23217;-43
2023/04/06 06:41:29;;;;;;;37.50;16.00;;;;;;;1.88;57.55;99578.92;107843;1308;22444;-42
2023/04/06 06:43:54;;;;;;;29.10;13.50;;;;;;;1.91;57.17;99578.05;107833;1308;22465;-42
2023/04/06 06:46:20;;;;;;;28.30;12.50;;;;;;;1.91;56.81;99575.79;107846;1308;23322;-42
2023/04/06 06:48:45;;;;;;;30.80;12.50;;;;;;;1.85;56.94;99577.61;107839;1308;22264;-42
2023/04/06 06:51:11;;;;;;;30.00;12.60;;;;;;;1.84;56.98;99576.93;107830;1308;22283;-42
2023/04/06 06:53:37;;;;;;;25.70;11.90;;;;;;;1.80;56.94;99575.61;107852;1308;22367;-46
2023/04/06 06:56:02;;;;;;;30.20;12.50;;;;;;;1.81;57.06;99576.12;107818;1293;22398;-42
2023/04/06 06:58:27;;;;;;;37.00;14.50;;;;;;;1.81;57.16;99577.30;107191;1308;22632;-39
2023/04/06 07:00:58;;;;;;;31.00;13.00;;;;;;;1.79;57.31;99575.45;107820;1308;22954;-41
2023/04/06 07:03:23;;;;;;;30.60;13.70;;;;;;;1.76;57.55;99576.54;107809;1308;22890;-40
2023/04/06 07:05:52;;;;;;;38.60;14.80;;;;;;;1.76;57.88;99579.99;107818;1308;23011;-44
2023/04/06 07:08:19;;;;;;;35.90;13.80;;;;;;;1.70;57.64;99577.47;107842;1308;22236;-43
2023/04/06 07:10:44;;;;;;;34.80;13.40;;;;;;;1.68;57.90;99575.09;107827;1308;22273;-43
2023/04/06 07:13:10;;;;;;;29.00;13.50;;;;;;;1.74;57.87;99578.11;107828;1308;23070;-39
2023/04/06 07:15:35;;;;;;;31.20;13.70;;;;;;;1.68;57.68;99578.88;107847;1308;22413;-43
2023/04/06 07:18:00;;;;;;;34.10;13.20;;;;;;;1.72;57.81;99576.77;107825;1308;22293;-45
2023/04/06 07:20:27;;;;;;;36.50;14.40;;;;;;;1.72;57.82;99576.76;107829;1308;22199;-41
2023/04/06 07:22:53;;;;;;;30.50;14.20;;;;;;;1.75;57.86;99571.88;107850;1308;22802;-44
2023/04/06 07:25:18;;;;;;;26.90;13.30;;;;;;;1.92;58.03;99571.27;107850;1308;22422;-43
2023/04/06 07:27:43;;;;;;;27.60;12.50;;;;;;;2.07;57.72;99570.35;107856;1308;22458;-47
2023/04/06 07:30:09;;;;;;;31.70;13.90;;;;;;;2.08;57.53;99576.73;107823;1308;23166;-45
2023/04/06 07:32:35;;;;;;;40.40;12.60;;;;;;;2.19;57.39;99574.65;107829;1308;22416;-39
2023/04/06 07:35:01;;;;;;;42.50;15.90;;;;;;;2.28;57.48;99568.96;107819;1308;22225;-46
2023/04/06 07:37:26;;;;;;;30.30;14.50;;;;;;;2.25;57.20;99569.52;107684;1308;22229;-45
2023/04/06 07:39:51;;;;;;;36.10;16.60;;;;;;;2.34;57.36;99568.70;107830;1308;23333;-42
2023/04/06 07:42:16;;;;;;;29.50;14.00;;;;;;;2.42;57.59;99570.63;107821;1308;22973;-46
2023/04/06 07:44:42;;;;;;;28.20;13.00;;;;;;;2.48;57.20;99570.00;107845;1308;22801;-42
2023/04/06 07:47:07;;;;;;;31.20;14.30;;;;;;;2.49;57.08;99567.21;107848;1308;22151;-41
2023/04/06 07:49:32;;;;;;;22.90;12.10;;;;;;;2.56;56.94;99568.98;107818;1308;22214;-41
2023/04/06 07:51:58;;;;;;;23.20;11.70;;;;;;;2.51;56.60;99569.93;107839;1308;22992;-44
2023/04/06 07:54:23;;;;;;;29.10;12.10;;;;;;;2.54;56.61;99571.61;107825;1308;22433;-40
2023/04/06 07:56:48;;;;;;;20.50;10.40;;;;;;;2.69;56.44;99576.20;107842;1308;22482;-37
2023/04/06 07:59:14;;;;;;;18.10;8.90;;;;;;;2.85;55.67;99569.48;107798;1308;22861;-43
2023/04/06 08:01:39;;;;;;;18.80;9.10;;;;;;;2.85;55.61;99568.63;107946;1305;22238;-44
2023/04/06 08:04:05;;;;;;;18.80;10.10;;;;;;;2.92;55.37;99566.40;107987;1307;22925;-39
2023/04/06 08:06:30;;;;;;;21.10;9.80;;;;;;;3.04;55.69;99565.46;107998;1307;22251;-43
2023/04/06 08:08:55;;;;;;;21.70;10.70;;;;;;;2.92;55.39;99565.90;107991;1307;22321;-43
2023/04/06 08:11:21;;;;;;;21.50;11.40;;;;;;;3.15;55.76;99561.61;107985;1307;23061;-41
2023/04/06 08:13:46;;;;;;;17.70;9.30;;;;;;;3.25;55.13;99563.48;107986;1307;22964;-42
2023/04/06 08:16:12;;;;;;;13.40;7.50;;;;;;;3.34;54.40;99556.36;107993;1307;23024;-42
2023/04/06 08:18:37;;;;;;;17.00;7.70;;;;;;;3.46;53.74;99558.69;107990;1307;22294;-42
2023/04/06 08:21:02;;;;;;;19.40;7.10;;;;;;;3.75;53.85;99553.73;108030;1307;22472;-43
2023/04/06 08:23:28;;;;;;;15.60;7.10;;;;;;;3.95;53.12;99551.34;108002;1307;22216;-45
2023/04/06 08:25:54;;;;;;;15.60;6.90;;;;;;;4.03;52.69;99550.80;107997;1307;23162;-39
2023/04/06 08:28:21;;;;;;;15.20;6.40;;;;;;;4.07;52.96;99545.48;107917;1299;22164;-42
2023/04/06 08:30:46;;;;;;;13.40;5.10;;;;;;;4.18;52.49;99547.98;107923;1302;22410;-43
2023/04/06 08:33:11;;;;;;;11.00;5.70;;;;;;;3.98;51.66;99550.04;107910;1305;22216;-44
2023/04/06 08:35:37;;;;;;;8.60;5.00;;;;;;;4.16;51.55;99547.88;107816;1308;22946;-41
2023/04/06 08:38:02;;;;;;;12.30;3.30;;;;;;;4.17;49.57;99551.14;107806;1308;22266;-40
2023/04/06 08:40:27;;;;;;;9.30;3.20;;;;;;;4.17;49.06;99551.14;107824;1308;22332;-42
2023/04/06 08:42:55;;;;;;;11.10;3.10;;;;;;;4.31;49.01;99550.80;107805;1308;23349;-40
2023/04/06 08:45:21;;;;;;;7.30;3.40;;;;;;;4.31;49.45;99548.91;107840;1308;22448;-42
2023/04/06 08:47:54;;;;;;;5.80;3.10;;;;;;;4.28;49.18;99546.73;107831;1308;22214;-43
2023/04/06 08:50:20;;;;;;;15.30;5.00;;;;;;;4.16;48.88;99543.73;107822;1308;22210;-38
2023/04/06 08:52:47;;;;;;;8.60;3.20;;;;;;;4.03;49.05;99548.17;107827;1305;22182;-41
2023/04/06 08:55:13;;;;;;;12.10;3.50;;;;;;;3.85;49.33;99553.48;107834;1308;22142;-40
2023/04/06 08:57:39;;;;;;;7.60;3.70;;;;;;;3.77;49.52;99549.86;107836;1308;22270;-39
2023/04/06 09:00:07;;;;;;;9.90;3.90;;;;;;;3.54;50.37;99543.46;107828;1308;22206;-39
2023/04/06 09:02:33;;;;;;;11.40;4.50;;;;;;;3.66;50.49;99543.33;107693;1307;23104;-43
2023/04/06 09:04:59;;;;;;;7.50;4.30;;;;;;;3.82;50.37;99536.55;107988;1307;22844;-43
2023/04/06 09:07:25;;;;;;;11.10;4.70;;;;;;;3.86;50.58;99532.14;107930;1308;22252;-40
2023/04/06 09:09:51;;;;;;;7.70;4.30;;;;;;;3.97;50.47;99534.45;107836;1308;22438;-40
2023/04/06 09:12:31;;;;;;;8.50;4.10;;;;;;;4.06;50.63;99535.80;107848;1308;22231;-44
2023/04/06 09:14:57;;;;;;;11.20;5.50;;;;;;;3.97;50.65;99530.66;107855;1308;22858;-46
2023/04/06 09:17:28;;;;;;;8.20;5.30;;;;;;;3.94;50.79;99528.81;107820;1302;22947;-42
2023/04/06 09:19:53;;;;;;;7.60;4.30;;;;;;;3.69;51.33;99534.42;107846;1308;22988;-41
2023/04/06 09:22:20;;;;;;;9.70;4.80;;;;;;;3.59;52.20;99533.10;107865;1308;22249;-41
2023/04/06 09:24:47;;;;;;;12.50;4.60;;;;;;;3.62;52.68;99527.31;107839;1308;22269;-42
2023/04/06 09:27:13;;;;;;;7.90;5.10;;;;;;;3.54;52.81;99529.58;107489;1307;22252;-40
2023/04/06 09:29:39;;;;;;;10.50;5.00;;;;;;;3.61;53.10;99533.23;107987;1307;23413;-43
2023/04/06 09:32:06;;;;;;;11.10;4.90;;;;;;;3.62;52.97;99526.79;107968;1307;22225;-43
2023/04/06 09:34:32;;;;;;;10.20;5.30;;;;;;;3.73;53.18;99523.05;107858;1308;22345;-42
2023/04/06 09:36:58;;;;;;;9.30;4.90;;;;;;;3.93;53.56;99527.44;107790;1292;22368;-42
2023/04/06 09:39:23;;;;;;;11.50;6.40;;;;;;;3.82;52.93;99529.63;107922;1302;22996;-38
2023/04/06 09:41:54;;;;;;;14.30;5.50;;;;;;;3.77;52.95;99525.23;107789;1306;22353;-44
2023/04/06 09:44:20;;;;;;;13.60;5.60;;;;;;;3.75;53.09;99514.87;107892;1307;22318;-41
2023/04/06 09:46:46;;;;;;;9.60;5.20;;;;;;;3.91;53.10;99511.38;107967;1307;22248;-43
2023/04/06 09:49:13;;;;;;;10.70;4.60;;;;;;;4.01;52.81;99516.33;107969;1307;22379;-44
2023/04/06 09:51:58;;;;;;;8.80;4.50;;;;;;;4.15;52.33;99515.45;107855;1307;22235;-45
2023/04/06 09:54:28;;;;;;;6.90;3.90;;;;;;;4.26;51.82;99515.18;107965;1302;22221;-38
2023/04/06 09:57:09;;;;;;;11.20;4.50;;;;;;;4.22;51.63;99518.94;107872;1307;22401;-40
2023/04/06 10:00:07;;;;;;;7.80;4.20;;;;;;;4.27;51.60;99517.08;107880;1302;22931;-43
2023/04/06 10:02:43;;;;;;;10.40;4.60;;;;;;;4.29;51.87;99510.23;107796;1305;22238;-45
2023/04/06 10:05:31;;;;;;;10.50;4.60;;;;;;;4.35;51.72;99511.45;107959;1307;23126;-41
2023/04/06 10:08:00;;;;;;;7.60;4.20;;;;;;;4.39;51.33;99509.80;107575;1308;22401;-43
2023/04/06 10:10:26;;;;;;;10.90;4.50;;;;;;;4.31;51.64;99504.98;107998;1302;22233;-42
2023/04/06 10:12:52;;;;;;;6.60;3.80;;;;;;;4.41;51.86;99508.70;107873;1307;22283;-40
2023/04/06 10:15:17;;;;;;;5.70;3.70;;;;;;;4.58;51.79;99503.91;107906;1307;23013;-42
2023/04/06 10:17:43;;;;;;;6.10;3.30;;;;;;;4.49;51.68;99502.42;107930;1301;22449;-43
2023/04/06 10:20:14;;;;;;;9.10;4.10;;;;;;;4.51;51.88;99502.01;107873;1307;22372;-42
2023/04/06 10:22:56;;;;;;;4.30;3.80;;;;;;;4.38;52.24;99501.84;107945;1307;23065;-44
2023/04/06 10:25:32;;;;;;;7.10;4.30;;;;;;;4.64;51.92;99501.98;107914;1307;22214;-45
2023/04/06 10:28:11;;;;;;;7.40;4.40;;;;;;;4.63;51.61;99498.92;107889;1302;22473;-43
2023/04/06 10:30:42;;;;;;;9.20;4.60;;;;;;;4.59;51.92;99496.42;107902;1308;22930;-37
2023/04/06 10:33:15;;;;;;;7.90;4.40;;;;;;;4.64;51.92;99490.03;107986;1307;22721;-42
2023/04/06 10:35:41;;;;;;;8.30;4.60;;;;;;;4.70;51.84;99488.13;107881;1308;22248;-42
2023/04/06 10:38:07;;;;;;;20.00;5.40;;;;;;;4.82;51.62;99493.88;107944;1302;22443;-42
2023/04/06 10:40:36;;;;;;;9.90;6.30;;;;;;;4.66;51.68;99490.84;107874;1307;22983;-42
2023/04/06 10:43:19;;;;;;;11.80;5.40;;;;;;;4.55;52.19;99485.06;107945;1304;22487;-40
2023/04/06 10:45:44;;;;;;;13.80;6.60;;;;;;;4.50;52.18;99471.66;107930;1302;22323;-41
2023/04/06 10:48:14;;;;;;;9.70;5.50;;;;;;;4.59;52.11;99468.82;107873;1307;23096;-42
2023/04/06 10:50:41;;;;;;;7.10;4.10;;;;;;;4.60;51.91;99469.11;107691;1307;22924;-44
2023/04/06 10:53:06;;;;;;;8.00;4.30;;;;;;;4.62;52.09;99465.08;107942;1307;22367;-42
2023/04/06 10:55:32;;;;;;;13.20;5.50;;;;;;;4.70;51.92;99455.65;107925;1307;22229;-40
2023/04/06 10:57:57;;;;;;;12.10;6.50;;;;;;;4.52;52.29;99454.58;107872;1301;22251;-39
2023/04/06 11:00:23;;;;;;;14.80;6.80;;;;;;;4.70;52.38;99450.80;107994;1307;22365;-39
2023/04/06 11:02:48;;;;;;;9.00;5.10;;;;;;;4.74;52.40;99449.63;107892;1305;22251;-43
2023/04/06 11:05:14;;;;;;;6.70;4.40;;;;;;;4.75;51.90;99448.73;107919;1304;22255;-44
2023/04/06 11:07:40;;;;;;;14.40;5.00;;;;;;;4.73;52.14;99451.39;107929;1308;22348;-43
2023/04/06 11:10:07;;;;;;;9.30;4.10;;;;;;;4.85;51.83;99449.13;107961;1302;22414;-40
2023/04/06 11:12:34;;;;;;;6.60;5.30;;;;;;;4.87;52.03;99449.77;107842;1307;22403;-44
2023/04/06 11:15:06;;;;;;;18.20;8.80;;;;;;;4.71;52.49;99455.61;107970;1307;22303;-46
2023/04/06 11:17:35;;;;;;;9.00;6.00;;;;;;;4.61;52.64;99452.08;107943;1307;22572;-44
2023/04/06 11:20:01;;;;;;;7.80;4.30;;;;;;;4.56;53.03;99450.84;107913;1308;23176;-44